createdAt,value
2023-01-25T00:02:03.620Z,11.63
2023-01-25T00:04:32.722Z,10.38
2023-01-25T00:07:01.914Z,9.70
2023-01-25T00:09:30.454Z,8.02
2023-01-25T00:12:00.443Z,9.82
2023-01-25T00:14:28.975Z,10.95
2023-01-25T00:16:58.120Z,11.32
2023-01-25T00:19:26.843Z,11.35
2023-01-25T00:21:55.478Z,11.65
2023-01-25T00:24:26.005Z,13.40
2023-01-25T00:26:54.617Z,13.60
2023-01-25T00:29:24.564Z,12.73
2023-01-25T00:32:03.609Z,12.93
2023-01-25T00:34:46.922Z,12.88
2023-01-25T00:37:21.890Z,12.55
2023-01-25T00:39:50.590Z,12.75
2023-01-25T00:42:20.712Z,12.57
2023-01-25T00:44:51.066Z,13.88
2023-01-25T00:47:21.669Z,14.13
2023-01-25T00:49:50.414Z,13.25
2023-01-25T00:52:18.847Z,14.07
2023-01-25T00:54:47.446Z,13.80
2023-01-25T00:57:16.069Z,13.60
2023-01-25T00:59:46.146Z,12.68
2023-01-25T01:02:17.955Z,12.73
2023-01-25T01:04:46.621Z,12.52
2023-01-25T01:07:16.484Z,12.60
2023-01-25T01:09:45.425Z,11.85
2023-01-25T01:12:13.992Z,12.82
2023-01-25T01:14:43.910Z,13.27
2023-01-25T01:17:12.449Z,13.18
2023-01-25T01:19:43.307Z,12.30
2023-01-25T01:22:11.842Z,13.43
2023-01-25T01:24:40.495Z,12.85
2023-01-25T01:27:10.530Z,12.95
2023-01-25T01:29:39.153Z,13.38
2023-01-25T01:32:07.841Z,13.63
2023-01-25T01:34:36.775Z,14.90
2023-01-25T01:37:06.767Z,13.98
2023-01-25T01:39:36.220Z,13.52
2023-01-25T01:42:05.216Z,13.85
2023-01-25T01:44:48.946Z,13.60
2023-01-25T01:47:23.107Z,14.70
2023-01-25T01:50:00.909Z,15.00
2023-01-25T01:52:36.772Z,15.50
2023-01-25T01:55:10.500Z,15.90
2023-01-25T01:57:44.922Z,15.35
2023-01-25T02:00:17.437Z,15.52
2023-01-25T02:02:50.473Z,15.75
2023-01-25T02:05:26.739Z,15.07
2023-01-25T02:07:57.611Z,15.07
2023-01-25T02:10:28.410Z,14.65
2023-01-25T02:12:59.807Z,14.80
2023-01-25T02:15:33.851Z,15.35
2023-01-25T02:18:04.667Z,15.52
2023-01-25T02:20:38.629Z,16.10
2023-01-25T02:23:17.557Z,14.80
2023-01-25T02:25:47.970Z,15.93
2023-01-25T02:28:22.540Z,14.97
2023-01-25T02:30:51.451Z,15.52
2023-01-25T02:33:20.543Z,15.55
2023-01-25T02:35:53.963Z,15.05
2023-01-25T02:38:23.281Z,14.65
2023-01-25T02:41:00.538Z,15.20
2023-01-25T02:43:33.779Z,15.35
2023-01-25T02:46:13.216Z,13.73
2023-01-25T02:48:46.452Z,13.75
2023-01-25T02:51:15.350Z,13.52
2023-01-25T02:53:44.084Z,12.52
2023-01-25T02:56:13.939Z,13.50
2023-01-25T02:58:42.704Z,14.13
2023-01-25T03:01:12.375Z,13.52
2023-01-25T03:03:43.097Z,12.30
2023-01-25T03:06:12.085Z,13.02
2023-01-25T03:08:41.751Z,10.88
2023-01-25T03:11:10.561Z,11.75
2023-01-25T03:13:40.870Z,11.65
2023-01-25T03:16:12.202Z,11.35
2023-01-25T03:18:43.403Z,10.90
2023-01-25T03:21:15.375Z,11.60
2023-01-25T03:23:45.449Z,10.98
2023-01-25T03:26:18.623Z,9.98
2023-01-25T03:29:06.520Z,10.00
2023-01-25T03:31:38.772Z,10.50
2023-01-25T03:34:07.583Z,10.60
2023-01-25T03:36:40.715Z,9.45
2023-01-25T03:39:09.258Z,9.35
2023-01-25T03:41:42.316Z,10.68
2023-01-25T03:44:15.200Z,9.65
2023-01-25T03:46:46.094Z,10.50
2023-01-25T03:49:14.850Z,9.80
2023-01-25T03:51:43.827Z,9.52
2023-01-25T03:54:12.454Z,9.77
2023-01-25T03:56:42.142Z,9.52
2023-01-25T03:59:21.148Z,9.23
2023-01-25T04:01:50.341Z,9.30
2023-01-25T04:04:19.300Z,9.27
2023-01-25T04:06:49.833Z,8.52
2023-01-25T04:09:18.590Z,8.55
2023-01-25T04:11:52.141Z,8.02
2023-01-25T04:14:31.979Z,8.85
2023-01-25T04:17:11.020Z,7.78
2023-01-25T04:19:59.728Z,8.15
2023-01-25T04:22:35.424Z,8.65
2023-01-25T04:25:06.749Z,7.57
2023-01-25T04:27:35.838Z,7.57
2023-01-25T04:30:16.522Z,8.60
2023-01-25T04:32:46.947Z,8.40
2023-01-25T04:35:33.729Z,7.70
2023-01-25T04:38:04.392Z,7.00
2023-01-25T04:40:40.187Z,7.07
2023-01-25T04:47:35.539Z,6.75
2023-01-25T04:50:07.324Z,6.10
2023-01-25T04:52:36.391Z,5.75
2023-01-25T04:55:05.134Z,6.28
2023-01-25T04:57:41.235Z,5.85
2023-01-25T05:00:12.083Z,5.13
2023-01-25T05:02:42.156Z,5.93
2023-01-25T05:05:11.857Z,5.22
2023-01-25T05:07:41.085Z,5.35
2023-01-25T05:10:12.044Z,5.20
2023-01-25T05:12:47.795Z,5.25
2023-01-25T05:15:16.490Z,4.68
2023-01-25T05:17:46.550Z,4.85
2023-01-25T05:20:15.349Z,5.20
2023-01-25T05:22:44.059Z,4.93
2023-01-25T05:25:26.482Z,4.85
2023-01-25T05:27:55.265Z,4.95
2023-01-25T05:30:51.516Z,4.32
2023-01-25T05:33:27.954Z,4.05
2023-01-25T05:35:56.500Z,4.28
2023-01-25T05:38:26.169Z,3.80
2023-01-25T05:40:58.889Z,4.07
2023-01-25T05:43:27.513Z,4.25
2023-01-25T05:45:56.364Z,4.10
2023-01-25T05:48:25.558Z,3.97
2023-01-25T05:50:58.926Z,3.88
2023-01-25T05:53:27.742Z,4.00
2023-01-25T05:55:56.568Z,4.47
2023-01-25T05:58:25.405Z,4.10
2023-01-25T06:00:55.094Z,4.13
2023-01-25T06:03:35.564Z,3.90
2023-01-25T06:06:06.669Z,4.00
2023-01-25T06:08:36.975Z,4.38
2023-01-25T06:11:08.817Z,4.72
2023-01-25T06:13:39.635Z,4.40
2023-01-25T06:16:08.910Z,4.47
2023-01-25T06:18:44.917Z,4.38
2023-01-25T06:21:37.205Z,3.63
2023-01-25T06:24:06.625Z,3.83
2023-01-25T06:26:35.794Z,4.30
2023-01-25T06:29:06.708Z,4.35
2023-01-25T06:31:35.475Z,4.37
2023-01-25T06:34:06.485Z,4.47
2023-01-25T06:36:37.461Z,4.57
2023-01-25T06:39:06.877Z,4.55
2023-01-25T06:41:35.782Z,4.53
2023-01-25T06:44:05.251Z,3.88
2023-01-25T06:46:34.196Z,4.68
2023-01-25T06:49:03.170Z,4.20
2023-01-25T06:51:31.692Z,4.50
2023-01-25T06:54:04.925Z,4.35
2023-01-25T06:56:34.016Z,4.18
2023-01-25T06:59:02.600Z,5.00
2023-01-25T07:01:31.400Z,4.40
2023-01-25T07:04:00.972Z,5.20
2023-01-25T07:06:35.244Z,4.95
2023-01-25T07:09:06.666Z,5.10
2023-01-25T07:11:35.681Z,5.15
2023-01-25T07:14:06.000Z,5.45
2023-01-25T07:16:38.760Z,5.63
2023-01-25T07:19:08.506Z,5.68
2023-01-25T07:21:37.075Z,6.22
2023-01-25T07:24:07.954Z,6.03
2023-01-25T07:26:36.505Z,6.23
2023-01-25T07:29:05.408Z,6.43
2023-01-25T07:31:34.363Z,6.60
2023-01-25T07:34:03.127Z,6.03
2023-01-25T07:36:31.679Z,6.75
2023-01-25T07:39:00.158Z,6.47
2023-01-25T07:41:30.176Z,6.70
2023-01-25T07:43:58.500Z,5.82
2023-01-25T07:46:50.407Z,6.57
2023-01-25T07:49:18.979Z,6.32
2023-01-25T07:51:47.476Z,6.70
2023-01-25T07:54:16.448Z,6.80
2023-01-25T07:56:46.437Z,6.43
2023-01-25T07:59:15.672Z,7.05
2023-01-25T08:01:44.357Z,6.65
2023-01-25T08:04:13.254Z,7.30
2023-01-25T08:06:41.794Z,7.70
2023-01-25T08:09:13.528Z,7.60
2023-01-25T08:14:13.194Z,7.68
2023-01-25T08:16:41.989Z,7.82
2023-01-25T08:19:11.769Z,7.47
2023-01-25T08:21:40.753Z,7.72
2023-01-25T08:24:10.515Z,7.43
2023-01-25T08:26:39.719Z,8.13
2023-01-25T08:29:08.956Z,8.40
2023-01-25T08:31:41.864Z,8.65
2023-01-25T08:34:11.643Z,9.48
2023-01-25T08:36:40.947Z,8.90
2023-01-25T08:39:12.086Z,9.23
2023-01-25T08:41:42.790Z,10.07
2023-01-25T08:44:11.778Z,8.73
2023-01-25T08:46:42.092Z,8.43
2023-01-25T08:49:11.419Z,8.73
2023-01-25T08:51:39.956Z,9.27
2023-01-25T08:54:14.550Z,8.88
2023-01-25T08:56:43.929Z,8.70
2023-01-25T08:59:13.818Z,8.27
2023-01-25T09:01:43.762Z,9.13
2023-01-25T09:04:12.378Z,9.18
2023-01-25T09:06:40.875Z,9.05
2023-01-25T09:09:09.823Z,9.00
2023-01-25T09:11:40.506Z,8.88
2023-01-25T09:14:09.170Z,9.60
2023-01-25T09:16:37.790Z,9.43
2023-01-25T09:19:08.095Z,9.52
2023-01-25T09:21:37.369Z,9.25
2023-01-25T09:24:07.715Z,10.80
2023-01-25T09:26:40.646Z,10.30
2023-01-25T09:29:11.635Z,9.85
2023-01-25T09:31:43.977Z,10.20
2023-01-25T09:34:34.920Z,9.52
2023-01-25T09:37:04.159Z,10.00
2023-01-25T09:39:33.343Z,9.75
2023-01-25T09:42:37.922Z,10.57
2023-01-25T09:45:22.746Z,9.90
2023-01-25T09:47:59.405Z,10.52
2023-01-25T09:50:39.094Z,9.60
2023-01-25T09:53:33.304Z,9.27
2023-01-25T09:56:11.004Z,9.50
2023-01-25T09:58:44.827Z,10.82
2023-01-25T10:01:37.675Z,10.32
2023-01-25T10:04:15.886Z,9.90
2023-01-25T10:06:59.761Z,10.85
2023-01-25T10:09:41.087Z,9.70
2023-01-25T10:12:17.423Z,10.75
2023-01-25T10:14:46.083Z,10.63
2023-01-25T10:17:22.029Z,9.90
2023-01-25T10:20:04.857Z,9.75
2023-01-25T10:22:41.033Z,10.60
2023-01-25T10:25:28.990Z,10.63
2023-01-25T10:28:10.294Z,10.07
2023-01-25T10:30:46.785Z,9.93
2023-01-25T10:33:19.767Z,9.38
2023-01-25T10:35:50.805Z,9.98
2023-01-25T10:38:26.720Z,9.53
2023-01-25T10:41:00.640Z,9.75
2023-01-25T10:43:29.870Z,8.85
2023-01-25T10:45:58.594Z,9.57
2023-01-25T10:48:33.246Z,9.27
2023-01-25T10:51:02.006Z,9.18
2023-01-25T10:53:34.505Z,8.80
2023-01-25T10:56:12.619Z,9.13
2023-01-25T10:58:43.699Z,7.80
2023-01-25T11:01:15.245Z,9.40
2023-01-25T11:06:14.391Z,8.50
2023-01-25T11:08:44.583Z,8.77
2023-01-25T11:11:28.316Z,7.95
2023-01-25T11:13:56.863Z,8.07
2023-01-25T11:16:34.576Z,9.10
2023-01-25T11:19:04.524Z,8.85
2023-01-25T11:21:35.590Z,8.63
2023-01-25T11:24:18.814Z,8.43
2023-01-25T11:26:47.911Z,8.98
2023-01-25T11:29:18.632Z,8.55
2023-01-25T11:31:49.745Z,9.18
2023-01-25T11:34:20.902Z,8.85
2023-01-25T11:37:01.442Z,10.10
2023-01-25T11:39:43.664Z,8.68
2023-01-25T11:42:28.225Z,9.40
2023-01-25T11:45:14.380Z,9.00
2023-01-25T11:47:58.111Z,9.75
2023-01-25T11:50:36.112Z,9.13
2023-01-25T11:53:27.962Z,9.90
2023-01-25T11:56:07.837Z,8.35
2023-01-25T11:59:01.252Z,8.40
2023-01-25T12:01:43.864Z,9.15
2023-01-25T12:04:40.452Z,9.00
2023-01-25T12:07:16.233Z,8.80
2023-01-25T12:10:01.228Z,9.07
2023-01-25T12:12:44.735Z,9.57
2023-01-25T12:15:29.552Z,9.65
2023-01-25T12:18:20.421Z,9.95
2023-01-25T12:21:07.838Z,10.65
2023-01-25T12:23:48.790Z,9.85
2023-01-25T12:26:29.877Z,10.65
2023-01-25T12:29:06.877Z,10.90
2023-01-25T12:31:44.815Z,10.30
2023-01-25T12:34:20.935Z,9.27
2023-01-25T12:36:51.661Z,9.90
2023-01-25T12:39:24.807Z,10.13
2023-01-25T12:41:57.541Z,9.40
2023-01-25T12:44:32.322Z,8.80
2023-01-25T12:47:08.042Z,8.82
2023-01-25T12:49:46.578Z,9.15
2023-01-25T12:52:23.559Z,9.73
2023-01-25T12:54:56.914Z,8.85
2023-01-25T12:57:31.111Z,8.45
2023-01-25T13:00:09.875Z,10.52
2023-01-25T13:02:56.540Z,10.57
2023-01-25T13:05:37.646Z,9.77
2023-01-25T13:08:30.874Z,9.88
2023-01-25T13:11:11.899Z,8.90
2023-01-25T13:13:40.490Z,10.52
2023-01-25T13:16:37.909Z,9.45
2023-01-25T13:19:20.776Z,9.82
2023-01-25T13:21:52.609Z,10.00
2023-01-25T13:24:24.368Z,9.20
2023-01-25T13:27:01.925Z,10.50
2023-01-25T13:29:59.167Z,10.10
2023-01-25T13:33:03.708Z,10.15
2023-01-25T13:35:36.796Z,9.68
2023-01-25T13:38:26.563Z,10.63
2023-01-25T13:41:14.569Z,11.02
2023-01-25T13:43:45.597Z,10.93
2023-01-25T13:46:19.110Z,9.65
2023-01-25T13:49:02.962Z,9.40
2023-01-25T13:51:37.880Z,11.50
2023-01-25T13:54:06.987Z,12.45
2023-01-25T13:56:37.548Z,9.93
2023-01-25T13:59:05.977Z,10.23
2023-01-25T14:01:37.444Z,9.25
2023-01-25T14:04:06.795Z,9.85
2023-01-25T14:06:40.577Z,10.02
2023-01-25T14:09:16.777Z,9.55
2023-01-25T14:11:50.921Z,9.50
2023-01-25T14:14:22.213Z,9.48
2023-01-25T14:17:03.125Z,10.15
2023-01-25T14:19:33.633Z,9.97
2023-01-25T14:22:14.900Z,9.38
2023-01-25T14:24:43.523Z,9.65
2023-01-25T14:27:15.495Z,10.27
2023-01-25T14:29:49.869Z,10.35
2023-01-25T14:32:21.827Z,9.98
2023-01-25T14:37:22.338Z,9.48
2023-01-25T14:39:53.178Z,9.10
2023-01-25T14:42:21.762Z,9.77
2023-01-25T14:44:50.366Z,9.35
2023-01-25T14:47:23.906Z,10.52
2023-01-25T14:49:52.281Z,9.85
2023-01-25T14:52:26.038Z,11.07
2023-01-25T14:54:57.593Z,10.77
2023-01-25T14:57:35.864Z,10.50
2023-01-25T15:00:06.674Z,9.77
2023-01-25T15:02:40.450Z,10.13
2023-01-25T15:05:19.659Z,10.15
2023-01-25T15:07:51.256Z,9.93
2023-01-25T15:10:23.295Z,11.23
2023-01-25T15:13:13.570Z,10.98
2023-01-25T15:15:55.002Z,10.40
2023-01-25T15:18:43.637Z,10.98
2023-01-25T15:21:14.113Z,12.15
2023-01-25T15:23:45.675Z,10.80
2023-01-25T15:26:21.016Z,10.20
2023-01-25T15:28:50.052Z,10.73
2023-01-25T15:31:20.273Z,10.40
2023-01-25T15:33:49.389Z,11.90
2023-01-25T15:36:18.735Z,11.50
2023-01-25T15:38:48.689Z,13.07
2023-01-25T15:41:21.557Z,12.27
2023-01-25T15:43:51.122Z,13.27
2023-01-25T15:46:21.205Z,12.38
2023-01-25T15:48:51.485Z,13.25
2023-01-25T15:51:20.263Z,12.95
2023-01-25T15:53:50.355Z,13.63
2023-01-25T15:56:21.009Z,12.82
2023-01-25T15:58:52.909Z,12.55
2023-01-25T16:01:22.357Z,12.90
2023-01-25T16:03:51.115Z,13.18
2023-01-25T16:06:37.991Z,12.27
2023-01-25T16:09:15.686Z,13.88
2023-01-25T16:11:44.638Z,12.63
2023-01-25T16:14:13.333Z,14.05
2023-01-25T16:16:44.273Z,13.68
2023-01-25T16:19:14.498Z,12.63
2023-01-25T16:21:43.686Z,13.25
2023-01-25T16:24:13.732Z,14.65
2023-01-25T16:26:46.853Z,14.57
2023-01-25T16:29:15.281Z,13.55
2023-01-25T16:31:43.779Z,13.63
2023-01-25T16:34:13.527Z,13.27
2023-01-25T16:36:43.882Z,14.45
2023-01-25T16:39:20.191Z,14.80
2023-01-25T16:41:49.583Z,15.07
2023-01-25T16:44:18.175Z,14.60
2023-01-25T16:46:47.553Z,14.95
2023-01-25T16:49:18.813Z,14.40
2023-01-25T16:51:49.147Z,13.80
2023-01-25T16:54:20.011Z,13.52
2023-01-25T16:56:49.138Z,15.00
2023-01-25T16:59:18.394Z,14.68
2023-01-25T17:01:47.699Z,15.75
2023-01-25T17:04:16.877Z,16.13
2023-01-25T17:06:47.309Z,15.20
2023-01-25T17:09:24.065Z,12.60
2023-01-25T17:11:53.588Z,16.88
2023-01-25T17:14:22.335Z,17.05
2023-01-25T17:16:52.165Z,17.42
2023-01-25T17:19:21.523Z,16.48
2023-01-25T17:21:50.094Z,17.15
2023-01-25T17:24:22.436Z,17.38
2023-01-25T17:26:51.647Z,16.60
2023-01-25T17:29:20.130Z,16.98
2023-01-25T17:31:49.494Z,16.90
2023-01-25T17:34:19.925Z,16.33
2023-01-25T17:36:50.857Z,15.93
2023-01-25T17:39:22.680Z,14.70
2023-01-25T17:41:52.101Z,15.95
2023-01-25T17:44:21.836Z,15.90
2023-01-25T17:46:51.546Z,15.43
2023-01-25T17:49:22.641Z,15.50
2023-01-25T17:51:51.895Z,15.18
2023-01-25T17:54:22.031Z,16.25
2023-01-25T17:56:50.339Z,17.88
2023-01-25T17:59:18.606Z,17.25
2023-01-25T18:01:47.163Z,16.38
2023-01-25T18:04:17.733Z,17.73
2023-01-25T18:06:46.451Z,17.60
2023-01-25T18:09:14.869Z,17.60
2023-01-25T18:11:45.116Z,18.20
2023-01-25T18:14:16.925Z,16.80
2023-01-25T18:16:45.701Z,16.95
2023-01-25T18:19:14.234Z,17.05
2023-01-25T18:21:43.488Z,17.42
2023-01-25T18:24:26.118Z,17.48
2023-01-25T18:27:02.237Z,16.80
2023-01-25T18:29:48.731Z,17.13
2023-01-25T18:32:17.377Z,16.60
2023-01-25T18:34:48.228Z,18.63
2023-01-25T18:37:21.171Z,17.00
2023-01-25T18:39:54.258Z,25.45
2023-01-25T18:42:26.033Z,25.40
2023-01-25T18:47:24.366Z,23.75
2023-01-25T18:49:54.235Z,24.13
2023-01-25T18:52:24.174Z,23.23
2023-01-25T18:54:52.822Z,24.33
2023-01-25T18:57:23.375Z,24.02
2023-01-25T18:59:52.180Z,22.70
2023-01-25T19:02:23.115Z,22.67
2023-01-25T19:04:51.532Z,22.27
2023-01-25T19:07:19.892Z,22.85
2023-01-25T19:09:48.593Z,19.23
2023-01-25T19:12:17.512Z,17.92
2023-01-25T19:14:47.798Z,17.60
2023-01-25T19:17:16.274Z,17.33
2023-01-25T19:19:44.714Z,18.70
2023-01-25T19:22:13.055Z,19.35
2023-01-25T19:24:41.327Z,20.67
2023-01-25T19:27:09.859Z,18.48
2023-01-25T19:29:38.335Z,17.42
2023-01-25T19:32:10.852Z,17.02
2023-01-25T19:34:39.784Z,16.77
2023-01-25T19:37:08.276Z,18.27
2023-01-25T19:39:37.263Z,16.80
2023-01-25T19:42:06.941Z,17.13
2023-01-25T19:44:35.345Z,21.48
2023-01-25T19:47:03.952Z,19.23
2023-01-25T19:49:33.885Z,18.23
2023-01-25T19:52:03.558Z,19.90
2023-01-25T19:54:32.114Z,22.40
2023-01-25T19:57:01.231Z,34.90
2023-01-25T19:59:29.835Z,32.55
2023-01-25T20:01:59.086Z,30.42
2023-01-25T20:04:27.521Z,38.20
2023-01-25T20:06:57.371Z,38.88
2023-01-25T20:09:28.309Z,31.17
2023-01-25T20:11:57.893Z,30.88
2023-01-25T20:14:27.953Z,31.40
2023-01-25T20:16:56.254Z,33.08
2023-01-25T20:19:24.570Z,29.52
2023-01-25T20:21:53.060Z,29.65
2023-01-25T20:24:25.153Z,27.17
2023-01-25T20:26:54.838Z,25.02
2023-01-25T20:29:24.203Z,22.25
2023-01-25T20:31:53.195Z,22.65
2023-01-25T20:34:23.284Z,21.58
2023-01-25T20:36:52.557Z,20.95
2023-01-25T20:39:22.721Z,21.08
2023-01-25T20:41:53.777Z,19.98
2023-01-25T20:44:22.602Z,16.13
2023-01-25T20:46:52.798Z,20.98
2023-01-25T20:49:21.281Z,21.98
2023-01-25T20:51:49.716Z,21.60
2023-01-25T20:54:20.776Z,20.17
2023-01-25T20:56:50.505Z,18.75
2023-01-25T20:59:20.878Z,18.33
2023-01-25T21:01:50.472Z,17.90
2023-01-25T21:04:19.124Z,21.30
2023-01-25T21:06:47.580Z,18.50
2023-01-25T21:09:16.298Z,19.65
2023-01-25T21:11:44.958Z,18.23
2023-01-25T21:14:13.380Z,19.45
2023-01-25T21:16:43.236Z,19.95
2023-01-25T21:19:11.946Z,19.48
2023-01-25T21:21:40.506Z,18.98
2023-01-25T21:24:10.361Z,18.70
2023-01-25T21:26:39.495Z,18.40
2023-01-25T21:29:08.866Z,23.85
2023-01-25T21:31:42.549Z,22.77
2023-01-25T21:34:12.557Z,27.50
2023-01-25T21:36:40.924Z,26.63
2023-01-25T21:39:09.597Z,27.90
2023-01-25T21:41:37.977Z,26.33
2023-01-25T21:44:23.721Z,25.48
2023-01-25T21:47:27.421Z,28.35
2023-01-25T21:50:12.864Z,29.60
2023-01-25T21:52:41.352Z,25.63
2023-01-25T21:55:10.955Z,22.88
2023-01-25T21:57:45.741Z,21.00
2023-01-25T22:00:17.171Z,20.25
2023-01-25T22:02:45.926Z,21.77
2023-01-25T22:05:15.756Z,21.70
2023-01-25T22:07:44.287Z,19.50
2023-01-25T22:10:13.495Z,21.23
2023-01-25T22:12:41.842Z,19.40
2023-01-25T22:15:10.565Z,23.30
2023-01-25T22:17:38.937Z,24.05
2023-01-25T22:20:08.760Z,22.05
2023-01-25T22:22:38.778Z,22.17
2023-01-25T22:25:07.913Z,20.02
2023-01-25T22:27:47.410Z,20.27
2023-01-25T22:30:15.749Z,19.70
2023-01-25T22:32:44.056Z,20.65
2023-01-25T22:35:12.473Z,20.08
2023-01-25T22:37:42.043Z,20.05
2023-01-25T22:40:11.900Z,20.85
2023-01-25T22:42:40.469Z,19.40
2023-01-25T22:45:09.549Z,20.38
2023-01-25T22:47:37.897Z,19.35
2023-01-25T22:50:07.091Z,20.58
2023-01-25T22:52:35.514Z,21.17
2023-01-25T22:55:06.070Z,21.48
2023-01-25T22:57:34.545Z,20.50
2023-01-25T23:00:03.073Z,19.98
2023-01-25T23:02:32.247Z,22.88
2023-01-25T23:05:00.619Z,22.05
2023-01-25T23:07:29.340Z,22.00
2023-01-25T23:09:57.826Z,21.90
2023-01-25T23:12:27.734Z,21.73
2023-01-25T23:14:59.231Z,21.77
2023-01-25T23:17:45.319Z,22.70
2023-01-25T23:20:14.522Z,20.55
2023-01-25T23:22:43.017Z,21.25
2023-01-25T23:25:13.145Z,21.27
2023-01-25T23:27:42.855Z,21.35
2023-01-25T23:30:12.578Z,22.45
2023-01-25T23:32:49.312Z,24.58
2023-01-25T23:35:20.640Z,23.08
2023-01-25T23:37:49.083Z,22.50
2023-01-25T23:40:18.025Z,22.98
2023-01-25T23:42:48.452Z,23.20
2023-01-25T23:45:17.376Z,23.45
2023-01-25T23:47:46.097Z,23.60
2023-01-25T23:50:14.418Z,23.67
2023-01-25T23:52:42.584Z,25.20
2023-01-25T23:55:12.314Z,23.92
2023-01-25T23:57:40.604Z,22.85
